Time;durP1;ratioP1;P1;durP2;ratioP2;P2;SDS_P1;SDS_P2;PMS_P1;PMS_P2;Temp;Humidity;BMP_temperature;BMP_pressure;BME280_temperature;BME280_humidity;BME280_pressure;Samples;Min_cycle;Max_cycle;Signal;HPM_P1;HPM_P2
2022/10/18 00:02:05;;;;;;;2.43;1.70;;;17.30;94.80;;;;;;4994259;28;20444;-73
2022/10/18 00:04:34;;;;;;;2.03;1.90;;;17.20;94.70;;;;;;5015342;28;20507;-72
2022/10/18 00:07:02;;;;;;;2.40;1.83;;;17.20;94.80;;;;;;5010841;28;20503;-72
2022/10/18 00:09:32;;;;;;;1.67;1.57;;;17.20;94.70;;;;;;5010113;28;20518;-72
2022/10/18 00:12:01;;;;;;;2.40;2.20;;;17.30;94.80;;;;;;5004087;28;20533;-72
2022/10/18 00:14:29;;;;;;;2.10;1.90;;;17.30;94.80;;;;;;5024896;28;20519;-70
2022/10/18 00:16:58;;;;;;;1.60;1.50;;;17.30;94.90;;;;;;4998111;28;20432;-73
2022/10/18 00:19:26;;;;;;;2.57;2.37;;;17.30;95.00;;;;;;5007500;28;21075;-72
2022/10/18 00:21:56;;;;;;;2.03;1.83;;;17.30;94.90;;;;;;5037869;22;20580;-51
2022/10/18 00:24:25;;;;;;;1.73;1.63;;;17.20;94.90;;;;;;5059578;28;20464;-50
2022/10/18 00:26:55;;;;;;;2.13;1.83;;;17.20;94.50;;;;;;5028836;28;20439;-53
2022/10/18 00:29:24;;;;;;;3.20;2.40;;;17.20;94.50;;;;;;5028332;28;20955;-52
2022/10/18 00:31:53;;;;;;;2.30;2.10;;;17.30;94.40;;;;;;5020423;28;20437;-51
2022/10/18 00:34:22;;;;;;;2.10;1.90;;;17.20;94.60;;;;;;5025497;28;20529;-52
2022/10/18 00:36:50;;;;;;;2.67;2.03;;;17.30;94.70;;;;;;5029240;28;20436;-52
2022/10/18 00:39:21;;;;;;;1.67;1.57;;;17.20;94.40;;;;;;5035917;28;20465;-52
2022/10/18 00:41:50;;;;;;;3.00;2.30;;;17.20;94.40;;;;;;5045825;28;20478;-52
2022/10/18 00:45:02;;;;;;;2.50;2.30;;;17.20;94.50;;;;;;5043853;28;20472;-52
2022/10/18 00:47:31;;;;;;;2.33;2.13;;;17.20;94.80;;;;;;5038383;28;20523;-51
2022/10/18 00:50:02;;;;;;;3.10;1.80;;;17.30;94.50;;;;;;5028666;28;20459;-53
2022/10/18 00:52:34;;;;;;;2.07;1.87;;;17.20;94.60;;;;;;5020741;28;20436;-52
2022/10/18 00:55:04;;;;;;;2.70;2.03;;;17.20;94.40;;;;;;5025614;28;20523;-52
2022/10/18 00:57:33;;;;;;;1.80;1.70;;;17.20;94.50;;;;;;5019376;28;20437;-51
2022/10/18 01:00:08;;;;;;;2.33;2.13;;;17.20;94.20;;;;;;5043495;28;20470;-50
2022/10/18 01:02:37;;;;;;;1.83;1.70;;;17.20;94.20;;;;;;5024272;28;21029;-53
2022/10/18 01:05:07;;;;;;;3.03;2.33;;;17.20;94.10;;;;;;5024046;28;20496;-52
2022/10/18 01:07:58;;;;;;;2.50;2.20;;;17.20;94.00;;;;;;5039490;28;20447;-51
2022/10/18 01:10:34;;;;;;;1.77;1.63;;;17.20;94.20;;;;;;5021212;28;21075;-53
2022/10/18 01:13:20;;;;;;;3.10;2.70;;;17.20;94.00;;;;;;5024318;28;20476;-52
2022/10/18 01:16:00;;;;;;;2.60;2.00;;;17.20;94.30;;;;;;5013263;28;20453;-51
2022/10/18 01:18:35;;;;;;;1.70;1.60;;;17.20;94.00;;;;;;5032625;28;20827;-51
2022/10/18 01:21:16;;;;;;;2.83;2.00;;;17.20;94.00;;;;;;5022743;28;20440;-52
2022/10/18 01:24:15;;;;;;;2.20;2.00;;;17.20;94.10;;;;;;5012059;28;20472;-53
2022/10/18 01:27:15;;;;;;;2.10;1.90;;;17.20;94.00;;;;;;5034748;28;20955;-50
2022/10/18 01:29:53;;;;;;;2.93;2.30;;;17.20;93.90;;;;;;5020412;28;20464;-53
2022/10/18 01:32:26;;;;;;;2.27;2.07;;;17.20;93.90;;;;;;5037075;28;20455;-51
2022/10/18 01:35:01;;;;;;;2.00;1.80;;;17.20;94.20;;;;;;5018610;28;20465;-52
2022/10/18 01:37:32;;;;;;;1.83;1.73;;;17.20;94.20;;;;;;5017900;28;20514;-52
2022/10/18 01:40:05;;;;;;;1.80;1.70;;;17.20;93.90;;;;;;5027279;28;20538;-52
2022/10/18 01:42:34;;;;;;;1.77;1.63;;;17.20;93.90;;;;;;5023876;28;20682;-52
2022/10/18 01:45:04;;;;;;;2.03;1.83;;;17.20;93.80;;;;;;5023173;28;20530;-52
2022/10/18 01:47:36;;;;;;;1.80;1.70;;;17.20;93.80;;;;;;5044343;28;20456;-53
2022/10/18 01:50:06;;;;;;;1.70;1.60;;;17.20;93.70;;;;;;5032957;28;20947;-51
2022/10/18 01:52:35;;;;;;;1.87;1.77;;;17.20;93.70;;;;;;5025974;28;20440;-51
2022/10/18 01:55:04;;;;;;;1.57;1.47;;;17.20;93.70;;;;;;5027325;28;20464;-52
2022/10/18 01:57:39;;;;;;;2.13;1.70;;;17.20;93.70;;;;;;5028200;28;20440;-52
2022/10/18 02:00:14;;;;;;;2.60;1.40;;;17.20;93.60;;;;;;5042049;28;21025;-50
2022/10/18 02:02:48;;;;;;;2.50;1.97;;;17.20;93.60;;;;;;5042550;28;21024;-52
2022/10/18 02:05:24;;;;;;;1.47;1.37;;;17.20;93.60;;;;;;5019825;28;20495;-52
2022/10/18 02:07:59;;;;;;;1.97;1.60;;;17.20;93.70;;;;;;5023433;28;20444;-53
2022/10/18 02:10:51;;;;;;;1.83;1.70;;;17.20;93.60;;;;;;5044205;28;20672;-51
2022/10/18 02:13:22;;;;;;;1.60;1.50;;;17.20;93.60;;;;;;4994983;28;20573;-52
2022/10/18 02:15:56;;;;;;;2.67;1.77;;;17.20;93.60;;;;;;5027058;28;20440;-52
2022/10/18 02:18:34;;;;;;;1.90;1.70;;;17.20;93.60;;;;;;5041845;28;20456;-51
2022/10/18 02:21:05;;;;;;;1.43;1.33;;;17.20;93.60;;;;;;5013695;28;20635;-52
2022/10/18 02:23:34;;;;;;;1.60;1.47;;;17.20;93.50;;;;;;5014902;28;20472;-52
2022/10/18 02:26:03;;;;;;;2.33;1.73;;;17.20;93.50;;;;;;5024609;28;20496;-52
2022/10/18 02:28:32;;;;;;;1.37;1.27;;;17.20;93.50;;;;;;5024186;28;20456;-51
2022/10/18 02:31:08;;;;;;;1.70;1.60;;;17.20;93.50;;;;;;5047565;28;20482;-52
2022/10/18 02:33:45;;;;;;;2.30;1.50;;;17.20;93.50;;;;;;5024599;28;21014;-52
2022/10/18 02:36:18;;;;;;;1.60;1.50;;;17.20;93.50;;;;;;5031204;28;20455;-51
2022/10/18 02:38:48;;;;;;;1.67;1.57;;;17.20;93.50;;;;;;5043419;28;20472;-52
2022/10/18 02:41:23;;;;;;;2.03;1.83;;;17.20;93.50;;;;;;5031118;28;20985;-50
2022/10/18 02:43:52;;;;;;;1.60;1.47;;;17.20;93.50;;;;;;5022054;28;21127;-53
2022/10/18 02:46:21;;;;;;;11.47;1.93;;;17.20;93.50;;;;;;5031173;28;20468;-50
2022/10/18 02:48:51;;;;;;;2.80;1.67;;;17.20;93.50;;;;;;5029409;28;20571;-51
2022/10/18 02:51:19;;;;;;;1.70;1.40;;;17.20;93.60;;;;;;5030930;28;20448;-52
2022/10/18 02:53:48;;;;;;;1.37;1.27;;;17.20;93.50;;;;;;5043609;28;20533;-53
2022/10/18 02:56:16;;;;;;;1.87;1.73;;;17.20;93.50;;;;;;5044623;28;20449;-52
2022/10/18 02:58:45;;;;;;;4.00;1.90;;;17.20;93.50;;;;;;5046942;28;20971;-53
2022/10/18 03:01:13;;;;;;;2.40;1.50;;;17.20;93.50;;;;;;5044318;28;20474;-52
2022/10/18 03:03:43;;;;;;;1.70;1.60;;;17.20;93.50;;;;;;5038898;28;21022;-52
2022/10/18 03:06:16;;;;;;;1.57;1.47;;;17.20;93.50;;;;;;5026977;28;20460;-52
2022/10/18 03:08:44;;;;;;;1.93;1.60;;;17.20;93.50;;;;;;5035087;28;20530;-51
2022/10/18 03:11:13;;;;;;;1.60;1.50;;;17.20;93.40;;;;;;5043601;28;21017;-51
2022/10/18 03:13:41;;;;;;;1.60;1.50;;;17.20;93.40;;;;;;5036882;28;20483;-52
2022/10/18 03:16:10;;;;;;;1.80;1.70;;;17.20;93.40;;;;;;5036436;28;20453;-52
2022/10/18 03:18:38;;;;;;;1.47;1.37;;;17.20;93.40;;;;;;5030096;28;20795;-52
2022/10/18 03:21:08;;;;;;;1.40;1.30;;;17.20;93.30;;;;;;5047433;28;20482;-52
2022/10/18 03:23:40;;;;;;;1.67;1.57;;;17.10;93.30;;;;;;5043194;28;20446;-52
2022/10/18 03:26:09;;;;;;;1.50;1.40;;;17.20;93.30;;;;;;5028059;28;20499;-53
2022/10/18 03:28:37;;;;;;;1.93;1.80;;;17.10;93.20;;;;;;5029520;28;20699;-52
2022/10/18 03:31:06;;;;;;;1.63;1.50;;;17.10;93.20;;;;;;5038089;28;21016;-51
2022/10/18 03:33:35;;;;;;;1.43;1.20;;;17.10;93.20;;;;;;5042640;28;20448;-50
2022/10/18 03:36:03;;;;;;;1.77;1.63;;;17.10;93.20;;;;;;5015887;28;20515;-53
2022/10/18 03:38:32;;;;;;;1.57;1.47;;;17.10;93.20;;;;;;5034984;28;20486;-52
2022/10/18 03:41:02;;;;;;;1.40;1.30;;;17.10;93.20;;;;;;5026878;28;20472;-51
2022/10/18 03:43:30;;;;;;;1.53;1.20;;;17.10;93.20;;;;;;5019784;28;20826;-52
2022/10/18 03:45:59;;;;;;;1.90;1.33;;;17.10;93.10;;;;;;5028345;28;20484;-52
2022/10/18 03:48:27;;;;;;;1.53;1.27;;;17.10;93.10;;;;;;5042655;28;20473;-54
2022/10/18 03:50:56;;;;;;;1.40;1.17;;;17.10;93.10;;;;;;5025944;28;20455;-53
2022/10/18 03:53:24;;;;;;;1.50;1.40;;;17.10;93.10;;;;;;5026811;28;20479;-51
2022/10/18 03:55:53;;;;;;;1.10;1.00;;;17.10;93.10;;;;;;5029209;28;20498;-52
2022/10/18 03:58:23;;;;;;;1.40;1.27;;;17.20;93.10;;;;;;5045589;28;20460;-52
2022/10/18 04:00:53;;;;;;;1.33;1.23;;;17.10;93.00;;;;;;5045805;28;20440;-51
2022/10/18 04:03:23;;;;;;;1.90;1.50;;;17.10;93.00;;;;;;5036160;28;20444;-52
2022/10/18 04:05:51;;;;;;;2.53;1.57;;;17.10;93.00;;;;;;5029878;28;20459;-53
2022/10/18 04:08:20;;;;;;;1.50;1.20;;;17.10;93.00;;;;;;5045042;28;20985;-52
2022/10/18 04:10:49;;;;;;;1.40;1.30;;;17.10;93.00;;;;;;5028938;28;20447;-52
2022/10/18 04:13:17;;;;;;;1.30;1.20;;;17.10;93.00;;;;;;5043132;28;20436;-52
2022/10/18 04:15:47;;;;;;;1.30;1.20;;;17.10;93.00;;;;;;5043162;28;20943;-53
2022/10/18 04:18:15;;;;;;;1.70;1.60;;;17.10;93.00;;;;;;5033988;28;21001;-52
2022/10/18 04:20:44;;;;;;;1.40;1.20;;;17.10;93.00;;;;;;5028444;28;20542;-52
2022/10/18 04:23:15;;;;;;;1.83;1.40;;;17.10;93.00;;;;;;5026359;28;20470;-53
2022/10/18 04:25:43;;;;;;;1.67;1.57;;;17.10;93.00;;;;;;5040658;28;20472;-53
2022/10/18 04:28:12;;;;;;;1.37;1.20;;;17.10;93.00;;;;;;5025852;28;20784;-53
2022/10/18 04:30:40;;;;;;;1.90;1.80;;;17.10;93.00;;;;;;5037911;28;20441;-51
2022/10/18 04:33:10;;;;;;;1.63;1.50;;;17.10;93.40;;;;;;5024906;28;20480;-53
2022/10/18 04:35:39;;;;;;;1.67;1.57;;;17.10;93.00;;;;;;5042107;28;20515;-53
2022/10/18 04:38:08;;;;;;;1.60;1.50;;;17.10;92.90;;;;;;5039694;28;20498;-52
2022/10/18 04:40:37;;;;;;;1.83;1.40;;;17.10;92.90;;;;;;5028556;28;20437;-53
2022/10/18 04:43:06;;;;;;;1.43;1.17;;;17.10;92.90;;;;;;5042497;28;20465;-52
2022/10/18 04:45:34;;;;;;;1.50;1.40;;;17.10;92.90;;;;;;5040079;28;20468;-51
2022/10/18 04:48:02;;;;;;;2.70;1.47;;;17.10;92.90;;;;;;5028028;28;20518;-53
2022/10/18 04:50:32;;;;;;;1.63;1.53;;;17.10;92.90;;;;;;5044596;28;20493;-52
2022/10/18 04:53:01;;;;;;;1.10;1.00;;;17.10;92.90;;;;;;5026219;28;20835;-52
2022/10/18 04:55:29;;;;;;;1.67;1.57;;;17.10;92.90;;;;;;5028580;28;20464;-53
2022/10/18 04:57:58;;;;;;;1.40;1.07;;;17.10;92.90;;;;;;5026350;28;20441;-52
2022/10/18 05:00:26;;;;;;;1.40;1.30;;;17.10;92.90;;;;;;5041509;28;20543;-51
2022/10/18 05:02:57;;;;;;;1.90;1.70;;;17.10;92.90;;;;;;5016810;28;20444;-52
2022/10/18 05:05:25;;;;;;;1.67;1.57;;;17.10;92.90;;;;;;5026866;28;20467;-53
2022/10/18 05:08:15;;;;;;;1.40;1.30;;;17.10;92.90;;;;;;5038571;28;20797;-52
2022/10/18 05:10:43;;;;;;;1.80;1.27;;;17.10;92.80;;;;;;5039414;28;20448;-51
2022/10/18 05:13:12;;;;;;;1.80;1.57;;;17.10;92.80;;;;;;5046416;28;20471;-50
2022/10/18 05:15:40;;;;;;;3.20;1.50;;;17.10;92.80;;;;;;5030108;28;20456;-51
2022/10/18 05:18:09;;;;;;;1.93;1.10;;;17.10;92.80;;;;;;5042715;28;20831;-52
2022/10/18 05:20:37;;;;;;;1.60;1.50;;;17.10;92.90;;;;;;5045053;28;20802;-51
2022/10/18 05:23:09;;;;;;;2.60;1.40;;;17.10;92.80;;;;;;5041711;28;20479;-52
2022/10/18 05:25:40;;;;;;;1.73;1.20;;;17.10;92.90;;;;;;5029110;28;20466;-50
2022/10/18 05:28:09;;;;;;;1.67;1.10;;;17.10;92.80;;;;;;5028294;28;20447;-51
2022/10/18 05:31:01;;;;;;;1.40;1.20;;;17.10;92.80;;;;;;5022148;28;20437;-52
2022/10/18 05:33:30;;;;;;;1.53;1.40;;;17.10;92.80;;;;;;5023288;28;20470;-53
2022/10/18 05:35:58;;;;;;;1.97;1.30;;;17.10;92.80;;;;;;5024276;28;20448;-52
2022/10/18 05:38:29;;;;;;;1.37;1.27;;;17.10;92.80;;;;;;5035425;28;20444;-50
2022/10/18 05:41:04;;;;;;;1.20;1.10;;;17.10;92.80;;;;;;5039900;28;20443;-52
2022/10/18 05:43:32;;;;;;;1.40;1.30;;;17.10;92.70;;;;;;5026846;28;20522;-53
2022/10/18 05:46:01;;;;;;;1.43;1.33;;;17.10;92.80;;;;;;5011693;28;20514;-51
2022/10/18 05:48:29;;;;;;;1.30;1.20;;;17.10;92.70;;;;;;5022664;28;20447;-53
2022/10/18 05:50:59;;;;;;;1.40;1.30;;;17.10;92.80;;;;;;5026558;28;20936;-51
2022/10/18 05:53:28;;;;;;;1.13;1.03;;;17.00;92.70;;;;;;5023783;28;20452;-52
2022/10/18 05:56:07;;;;;;;1.80;1.50;;;17.10;92.70;;;;;;5038622;28;20444;-52
2022/10/18 05:58:35;;;;;;;2.73;1.33;;;17.00;92.70;;;;;;5024128;28;20476;-53
2022/10/18 06:01:05;;;;;;;2.37;1.93;;;17.00;92.60;;;;;;5016817;28;20444;-53
2022/10/18 06:03:34;;;;;;;1.40;1.30;;;17.00;92.70;;;;;;5020890;28;20448;-52
2022/10/18 06:06:05;;;;;;;1.40;1.30;;;17.10;92.70;;;;;;5019331;28;20464;-53
2022/10/18 06:08:35;;;;;;;1.77;1.20;;;17.10;92.70;;;;;;5043421;28;20464;-53
2022/10/18 06:11:08;;;;;;;1.23;1.10;;;17.10;92.60;;;;;;5010194;28;20497;-51
2022/10/18 06:13:40;;;;;;;1.53;1.40;;;17.00;92.60;;;;;;5030774;28;20467;-52
2022/10/18 06:16:10;;;;;;;1.40;1.27;;;17.00;92.60;;;;;;5030168;28;20498;-51
2022/10/18 06:18:39;;;;;;;1.97;1.30;;;17.00;92.60;;;;;;5031104;28;20464;-51
2022/10/18 06:21:29;;;;;;;1.50;1.40;;;17.00;92.60;;;;;;5040046;28;20450;-51
2022/10/18 06:23:59;;;;;;;1.50;1.40;;;17.10;92.60;;;;;;4926990;28;20524;-51
2022/10/18 06:26:29;;;;;;;1.70;1.60;;;17.00;92.60;;;;;;4942053;28;20556;-51
2022/10/18 06:28:57;;;;;;;1.83;1.67;;;17.00;93.10;;;;;;4915881;28;20820;-50
2022/10/18 06:31:26;;;;;;;1.37;1.27;;;17.00;92.60;;;;;;4892790;28;20451;-50
2022/10/18 06:33:58;;;;;;;1.60;1.47;;;17.00;92.60;;;;;;4895380;28;20473;-51
2022/10/18 06:36:27;;;;;;;1.50;1.40;;;17.00;92.60;;;;;;4895240;28;20474;-51
2022/10/18 06:38:56;;;;;;;2.20;2.00;;;17.00;92.60;;;;;;4891551;28;20470;-51
2022/10/18 06:41:24;;;;;;;1.73;1.53;;;17.00;92.60;;;;;;4974116;28;20465;-51
2022/10/18 06:43:56;;;;;;;1.23;1.13;;;17.00;92.60;;;;;;4893435;28;20489;-52
2022/10/18 06:46:25;;;;;;;1.77;1.67;;;17.00;92.60;;;;;;4902342;28;21009;-51
2022/10/18 06:48:54;;;;;;;1.83;1.73;;;17.00;92.60;;;;;;4891793;29;20473;-51
2022/10/18 06:51:22;;;;;;;2.00;1.70;;;17.00;92.60;;;;;;4893240;28;20450;-51
2022/10/18 06:53:51;;;;;;;1.80;1.50;;;17.00;92.60;;;;;;4894976;28;20462;-51
2022/10/18 06:56:39;;;;;;;1.77;1.60;;;17.00;93.10;;;;;;4904424;28;21016;-50
2022/10/18 06:59:09;;;;;;;2.00;1.80;;;17.00;92.50;;;;;;4904576;29;20877;-51
2022/10/18 07:01:37;;;;;;;1.77;1.53;;;17.00;92.50;;;;;;4915750;29;20454;-51
2022/10/18 07:04:06;;;;;;;1.70;1.60;;;17.00;92.50;;;;;;4903361;28;20497;-51
2022/10/18 07:06:34;;;;;;;1.70;1.60;;;17.00;92.50;;;;;;4897097;28;20854;-49
2022/10/18 07:09:03;;;;;;;1.70;1.60;;;17.00;92.50;;;;;;4894406;29;20473;-49
2022/10/18 07:11:31;;;;;;;1.73;1.63;;;17.00;92.50;;;;;;4907690;28;20463;-50
2022/10/18 07:14:04;;;;;;;1.27;1.10;;;17.00;92.50;;;;;;4912039;28;20562;-50
2022/10/18 07:16:34;;;;;;;1.90;1.70;;;17.00;92.50;;;;;;4911701;28;20474;-50
2022/10/18 07:19:05;;;;;;;1.87;1.40;;;17.00;92.50;;;;;;4905156;29;20470;-50
2022/10/18 07:21:34;;;;;;;1.60;1.40;;;17.00;92.50;;;;;;4909647;28;20474;-51
2022/10/18 07:24:03;;;;;;;1.47;1.10;;;17.00;92.50;;;;;;4896848;28;20523;-51
2022/10/18 07:26:33;;;;;;;2.83;2.00;;;17.00;92.40;;;;;;4910718;28;20999;-50
2022/10/18 07:29:06;;;;;;;1.40;1.30;;;17.00;92.50;;;;;;4908551;29;20474;-51
2022/10/18 07:31:38;;;;;;;2.13;1.93;;;17.00;92.40;;;;;;4914720;29;21032;-49
2022/10/18 07:34:10;;;;;;;2.00;1.73;;;17.00;92.40;;;;;;4892741;28;21071;-50
2022/10/18 07:36:39;;;;;;;1.93;1.73;;;17.00;92.40;;;;;;4894965;29;20456;-49
2022/10/18 07:39:08;;;;;;;2.30;1.90;;;17.00;92.40;;;;;;4891086;29;21006;-50
2022/10/18 07:41:38;;;;;;;1.60;1.50;;;17.00;92.40;;;;;;4894722;28;20538;-50
2022/10/18 07:44:07;;;;;;;2.30;1.60;;;17.00;92.40;;;;;;4907745;29;21061;-50
2022/10/18 07:46:38;;;;;;;1.50;1.40;;;17.00;92.40;;;;;;4906377;29;20871;-50
2022/10/18 07:49:07;;;;;;;2.60;2.20;;;17.00;92.40;;;;;;4910375;29;20474;-50
2022/10/18 07:51:36;;;;;;;2.30;2.07;;;17.00;92.40;;;;;;4919526;29;20462;-50
2022/10/18 07:54:05;;;;;;;1.47;1.37;;;17.00;92.40;;;;;;4912536;28;20485;-50
2022/10/18 07:56:34;;;;;;;2.83;1.97;;;17.00;92.40;;;;;;4916908;29;20537;-50
2022/10/18 07:59:03;;;;;;;1.97;1.77;;;16.90;92.40;;;;;;4913736;28;20471;-50
2022/10/18 08:01:31;;;;;;;1.87;1.70;;;17.00;92.40;;;;;;4918219;28;20945;-49
2022/10/18 08:04:02;;;;;;;1.40;1.30;;;17.00;92.40;;;;;;4912358;29;20469;-50
2022/10/18 08:06:37;;;;;;;2.90;2.20;;;16.90;92.30;;;;;;4919668;29;20484;-50
2022/10/18 08:09:06;;;;;;;2.13;1.80;;;16.90;92.30;;;;;;4899649;28;20473;-50
2022/10/18 08:11:35;;;;;;;3.13;1.80;;;16.90;92.30;;;;;;4916530;29;21174;-49
2022/10/18 08:14:04;;;;;;;2.10;1.90;;;16.90;92.30;;;;;;4892721;28;20559;-49
2022/10/18 08:16:32;;;;;;;2.43;2.23;;;17.00;92.30;;;;;;4919198;28;20467;-50
2022/10/18 08:19:03;;;;;;;2.07;1.83;;;17.00;92.30;;;;;;4919852;28;20482;-51
2022/10/18 08:21:32;;;;;;;2.47;2.27;;;16.90;92.30;;;;;;4918278;28;20815;-50
2022/10/18 08:24:01;;;;;;;1.93;1.60;;;16.90;92.30;;;;;;4908181;28;20474;-49
2022/10/18 08:26:30;;;;;;;2.30;2.10;;;16.90;92.30;;;;;;4915695;28;20529;-50
2022/10/18 08:28:59;;;;;;;2.43;1.93;;;17.00;92.40;;;;;;4908782;29;20513;-50
2022/10/18 08:31:52;;;;;;;2.17;1.97;;;17.00;92.30;;;;;;4915294;29;20448;-50
2022/10/18 08:34:23;;;;;;;3.40;2.40;;;17.00;92.30;;;;;;4920689;29;20496;-50
2022/10/18 08:36:52;;;;;;;1.77;1.57;;;16.90;92.30;;;;;;4892477;28;21012;-50
2022/10/18 08:39:20;;;;;;;2.40;1.93;;;16.90;92.30;;;;;;4912364;28;21024;-50
2022/10/18 08:42:15;;;;;;;3.00;2.10;;;17.00;92.30;;;;;;4916670;29;20441;-50
2022/10/18 08:44:46;;;;;;;2.97;2.47;;;16.90;92.30;;;;;;4908895;29;20473;-50
2022/10/18 08:47:19;;;;;;;2.50;2.30;;;17.00;92.40;;;;;;4911799;29;20446;-51
2022/10/18 08:49:54;;;;;;;5.63;2.67;;;17.00;92.40;;;;;;4896096;28;20481;-49
2022/10/18 08:52:34;;;;;;;1.83;1.60;;;17.00;92.40;;;;;;4908140;29;20987;-51
2022/10/18 08:55:06;;;;;;;1.90;1.60;;;17.00;92.40;;;;;;4915119;29;20924;-49
2022/10/18 08:57:36;;;;;;;3.70;2.93;;;17.00;92.40;;;;;;4915041;28;20477;-50
2022/10/18 09:00:16;;;;;;;2.60;2.10;;;16.90;92.40;;;;;;4922235;29;20782;-50
2022/10/18 09:03:01;;;;;;;2.20;2.00;;;16.90;92.40;;;;;;4906009;29;20536;-50
2022/10/18 09:05:41;;;;;;;2.50;2.30;;;16.90;92.40;;;;;;4917442;29;20541;-50
2022/10/18 09:08:34;;;;;;;2.10;1.57;;;16.90;92.40;;;;;;4913793;29;20536;-50
2022/10/18 09:11:18;;;;;;;2.97;2.50;;;16.90;92.40;;;;;;4903219;29;20786;-49
2022/10/18 09:14:29;;;;;;;3.10;2.63;;;17.00;92.40;;;;;;4915210;29;20467;-50
2022/10/18 09:17:06;;;;;;;2.63;2.23;;;16.90;92.30;;;;;;4899602;29;20841;-50
2022/10/18 09:19:53;;;;;;;3.10;2.70;;;16.90;92.30;;;;;;4904300;28;20480;-51
2022/10/18 09:22:37;;;;;;;3.77;2.83;;;16.90;92.30;;;;;;4890280;29;20557;-50
2022/10/18 09:25:15;;;;;;;5.40;3.70;;;16.90;92.40;;;;;;4915044;29;20513;-50
2022/10/18 09:28:04;;;;;;;3.40;2.90;;;16.90;92.30;;;;;;4903787;29;20448;-51
2022/10/18 09:30:48;;;;;;;2.90;2.40;;;16.90;92.40;;;;;;4910345;28;20446;-50
2022/10/18 09:33:27;;;;;;;2.37;1.80;;;16.90;92.40;;;;;;5032150;23;20473;-72
2022/10/18 09:35:58;;;;;;;2.20;1.80;;;16.90;92.30;;;;;;5026426;28;20528;-72
2022/10/18 09:38:32;;;;;;;3.17;2.33;;;16.90;92.30;;;;;;5040153;28;20834;-72
2022/10/18 09:41:07;;;;;;;3.10;2.80;;;16.90;92.30;;;;;;5028695;28;20480;-72
2022/10/18 09:43:48;;;;;;;6.20;3.00;;;16.90;92.30;;;;;;5031237;28;20490;-72
2022/10/18 09:46:20;;;;;;;3.97;2.73;;;16.90;92.20;;;;;;5032184;28;20483;-72
2022/10/18 09:48:54;;;;;;;3.40;3.10;;;16.90;92.30;;;;;;5013886;28;20456;-72
2022/10/18 09:51:28;;;;;;;3.00;2.70;;;16.90;92.30;;;;;;5030524;28;21002;-72
2022/10/18 09:54:15;;;;;;;2.40;2.20;;;16.90;92.30;;;;;;5046015;28;20510;-71
2022/10/18 09:56:50;;;;;;;2.10;1.90;;;16.90;92.30;;;;;;5031922;28;20526;-72
2022/10/18 09:59:40;;;;;;;2.60;2.37;;;16.90;92.20;;;;;;5030395;28;20873;-72
2022/10/18 10:02:13;;;;;;;3.40;2.67;;;16.90;92.20;;;;;;5047148;28;20519;-72
2022/10/18 10:04:42;;;;;;;4.10;3.43;;;16.90;92.20;;;;;;5030449;28;20468;-72
2022/10/18 10:07:14;;;;;;;3.17;2.87;;;16.90;92.20;;;;;;5028845;28;20560;-72
2022/10/18 10:09:47;;;;;;;5.20;3.80;;;16.90;92.20;;;;;;5021463;28;20550;-72
2022/10/18 10:12:28;;;;;;;4.17;2.97;;;16.90;92.10;;;;;;5046104;28;20440;-72
2022/10/18 10:15:08;;;;;;;5.50;3.03;;;16.90;92.20;;;;;;5046396;28;21005;-72
2022/10/18 10:17:37;;;;;;;3.43;2.83;;;16.90;92.20;;;;;;5028869;28;20471;-72
2022/10/18 10:20:15;;;;;;;2.33;2.13;;;16.90;92.30;;;;;;5030783;28;20440;-72
2022/10/18 10:22:47;;;;;;;2.67;2.43;;;16.90;92.30;;;;;;5021645;28;20533;-72
2022/10/18 10:25:30;;;;;;;4.23;3.57;;;16.90;92.20;;;;;;5029219;28;20475;-72
2022/10/18 10:28:03;;;;;;;4.60;3.50;;;16.90;92.20;;;;;;5031795;28;20542;-72
2022/10/18 10:30:33;;;;;;;4.30;3.53;;;16.90;92.20;;;;;;5034093;28;21004;-72
2022/10/18 10:33:02;;;;;;;4.20;2.60;;;16.90;92.20;;;;;;5037816;28;20554;-72
2022/10/18 10:35:33;;;;;;;4.80;4.00;;;16.90;92.20;;;;;;5041503;28;20446;-72
2022/10/18 10:38:25;;;;;;;2.67;2.43;;;16.90;92.20;;;;;;5034517;28;21050;-72
2022/10/18 10:40:55;;;;;;;5.20;2.63;;;16.90;92.20;;;;;;5032210;28;20448;-72
2022/10/18 10:43:27;;;;;;;4.50;3.37;;;16.90;92.20;;;;;;5032553;28;20469;-72
2022/10/18 10:46:15;;;;;;;4.50;3.50;;;16.90;92.30;;;;;;5038824;28;20458;-70
2022/10/18 10:48:49;;;;;;;3.60;3.30;;;16.90;92.30;;;;;;5068395;28;20501;-70
2022/10/18 10:51:33;;;;;;;5.30;2.50;;;16.90;92.30;;;;;;5073730;28;20433;-70
2022/10/18 10:54:03;;;;;;;2.50;2.30;;;16.90;92.30;;;;;;5076605;28;20574;-70
2022/10/18 10:56:36;;;;;;;3.50;2.90;;;16.90;92.30;;;;;;5090023;28;20424;-70
2022/10/18 10:59:14;;;;;;;5.03;3.20;;;16.90;92.30;;;;;;5079465;28;20752;-70
2022/10/18 11:01:44;;;;;;;3.20;2.90;;;16.90;92.30;;;;;;5067246;28;20571;-70
2022/10/18 11:04:28;;;;;;;3.50;2.47;;;16.90;92.30;;;;;;5105251;28;20517;-70
2022/10/18 11:07:20;;;;;;;3.60;2.83;;;16.90;92.30;;;;;;5083062;28;20450;-70
2022/10/18 11:09:54;;;;;;;3.33;2.43;;;16.90;92.20;;;;;;5072522;28;20464;-70
2022/10/18 11:12:31;;;;;;;3.43;2.77;;;16.90;92.20;;;;;;5100740;28;20417;-70
2022/10/18 11:15:17;;;;;;;3.73;2.80;;;16.90;92.30;;;;;;5087549;28;20842;-70
2022/10/18 11:17:54;;;;;;;4.60;3.40;;;16.90;92.20;;;;;;5087944;28;20536;-70
2022/10/18 11:20:26;;;;;;;3.80;3.20;;;16.90;92.20;;;;;;5089426;28;20437;-70
2022/10/18 11:23:02;;;;;;;3.07;2.47;;;16.90;92.30;;;;;;5079658;28;20470;-70
2022/10/18 11:25:52;;;;;;;2.67;2.10;;;16.90;92.30;;;;;;5088800;28;20441;-70
2022/10/18 11:28:34;;;;;;;3.30;2.80;;;16.90;92.20;;;;;;5090392;28;21029;-70
2022/10/18 11:31:12;;;;;;;3.73;2.93;;;16.90;92.20;;;;;;5088755;28;20464;-70
2022/10/18 11:33:51;;;;;;;4.97;3.10;;;16.90;92.20;;;;;;5077348;28;20559;-70
2022/10/18 11:36:45;;;;;;;3.17;2.37;;;16.90;92.20;;;;;;5176094;22;20472;-72
2022/10/18 11:39:38;;;;;;;3.60;3.10;;;16.90;92.10;;;;;;5054768;28;21053;-72
2022/10/18 11:42:19;;;;;;;3.30;3.00;;;16.90;92.10;;;;;;5053472;28;20439;-72
2022/10/18 11:44:58;;;;;;;3.40;2.67;;;16.90;92.10;;;;;;5033073;28;20582;-72
2022/10/18 11:47:35;;;;;;;3.30;2.60;;;16.90;92.00;;;;;;5066725;22;21007;-71
2022/10/18 11:50:13;;;;;;;4.20;3.07;;;16.90;92.00;;;;;;5058639;28;20475;-70
2022/10/18 11:52:55;;;;;;;3.73;3.20;;;16.90;92.00;;;;;;5070339;28;20445;-70
2022/10/18 11:55:34;;;;;;;2.80;2.10;;;16.90;92.00;;;;;;5056927;28;20448;-70
2022/10/18 11:58:18;;;;;;;3.20;2.63;;;16.90;92.00;;;;;;5075799;28;20476;-70
2022/10/18 12:00:53;;;;;;;2.90;2.47;;;16.90;92.00;;;;;;5067271;28;20522;-69
2022/10/18 12:03:34;;;;;;;2.80;2.60;;;17.00;92.10;;;;;;5070339;28;20867;-70
2022/10/18 12:06:06;;;;;;;2.70;2.50;;;17.00;92.00;;;;;;5047322;28;20967;-70
2022/10/18 12:08:40;;;;;;;3.17;2.87;;;16.90;92.10;;;;;;5062688;28;20473;-72
2022/10/18 12:11:15;;;;;;;2.90;2.70;;;16.90;92.00;;;;;;5068887;28;20466;-72
2022/10/18 12:13:48;;;;;;;2.53;2.33;;;16.90;92.00;;;;;;5048721;28;20457;-72
2022/10/18 12:16:23;;;;;;;3.93;3.57;;;17.00;92.10;;;;;;5090216;28;20944;-72
2022/10/18 12:19:18;;;;;;;3.20;2.70;;;17.00;92.10;;;;;;5040147;28;20838;-72
2022/10/18 12:21:57;;;;;;;2.73;2.53;;;16.90;92.10;;;;;;5045947;28;20535;-72
2022/10/18 12:24:30;;;;;;;2.60;2.40;;;17.00;92.10;;;;;;5067585;28;20465;-70
2022/10/18 12:27:02;;;;;;;3.03;2.70;;;17.00;92.00;;;;;;5073841;28;20500;-72
2022/10/18 12:29:40;;;;;;;2.77;2.20;;;16.90;92.00;;;;;;5076248;28;20598;-72
2022/10/18 12:32:18;;;;;;;3.73;3.13;;;16.90;92.10;;;;;;5050734;28;20548;-73
2022/10/18 12:34:50;;;;;;;3.87;2.77;;;17.00;92.10;;;;;;5058548;28;20463;-73
2022/10/18 12:37:59;;;;;;;3.00;2.60;;;16.90;92.00;;;;;;5066195;28;20512;-73
2022/10/18 12:40:36;;;;;;;3.63;3.27;;;17.00;92.00;;;;;;4970796;28;20450;-70
2022/10/18 12:43:10;;;;;;;3.63;3.33;;;17.00;92.10;;;;;;4970948;28;21039;-70
2022/10/18 12:45:50;;;;;;;3.53;2.70;;;16.90;92.10;;;;;;4994558;28;20534;-71
2022/10/18 12:48:41;;;;;;;5.90;3.37;;;16.90;92.00;;;;;;5060048;28;20568;-72
2022/10/18 12:51:15;;;;;;;3.93;2.53;;;17.00;92.50;;;;;;5040128;28;20470;-72
2022/10/18 12:53:48;;;;;;;3.40;2.90;;;17.00;92.10;;;;;;5036363;28;20512;-72
2022/10/18 12:56:40;;;;;;;3.00;2.57;;;17.00;92.10;;;;;;5055090;28;20431;-70
2022/10/18 12:59:49;;;;;;;3.20;2.50;;;17.00;92.10;;;;;;5050862;28;20478;-72
2022/10/18 13:02:32;;;;;;;2.87;2.67;;;17.00;92.10;;;;;;5064312;28;20438;-73
2022/10/18 13:05:45;;;;;;;2.77;2.47;;;17.00;92.10;;;;;;5034038;28;20458;-72
2022/10/18 13:09:29;;;;;;;3.67;3.10;;;17.00;92.10;;;;;;5057083;28;20461;-71
2022/10/18 13:12:56;;;;;;;7.23;3.57;;;17.00;92.10;;;;;;5053488;28;20418;-72
2022/10/18 13:15:47;;;;;;;3.90;3.10;;;17.00;92.10;;;;;;5065976;28;20469;-70
2022/10/18 13:18:37;;;;;;;3.73;2.93;;;17.00;92.10;;;;;;5048920;28;20461;-71
2022/10/18 13:21:29;;;;;;;3.90;3.30;;;17.00;92.10;;;;;;5045980;28;20429;-73
2022/10/18 13:24:39;;;;;;;3.60;3.10;;;17.00;92.10;;;;;;5067702;28;20462;-72
2022/10/18 13:27:31;;;;;;;4.07;3.60;;;17.00;92.10;;;;;;5073946;28;20468;-72